sensor_id;sensor_type;location;lat;lon;timestamp;temperature;humidity
30865;DHT22;17574;49.418;11.038;2023-03-01T00:00:42;0.70;16.20
30865;DHT22;17574;49.418;11.038;2023-03-01T00:03:12;0.70;16.00
30865;DHT22;17574;49.418;11.038;2023-03-01T00:05:46;0.70;16.50
30865;DHT22;17574;49.418;11.038;2023-03-01T00:08:12;0.70;16.10
30865;DHT22;17574;49.418;11.038;2023-03-01T00:10:39;0.70;16.00
30865;DHT22;17574;49.418;11.038;2023-03-01T00:13:06;0.70;16.30
30865;DHT22;17574;49.418;11.038;2023-03-01T00:15:32;0.70;16.20
30865;DHT22;17574;49.418;11.038;2023-03-01T00:18:01;0.70;16.50
30865;DHT22;17574;49.418;11.038;2023-03-01T00:20:27;0.90;16.60
30865;DHT22;17574;49.418;11.038;2023-03-01T00:22:54;0.60;16.90
30865;DHT22;17574;49.418;11.038;2023-03-01T00:25:21;0.70;17.10
30865;DHT22;17574;49.418;11.038;2023-03-01T00:27:47;0.70;16.70
30865;DHT22;17574;49.418;11.038;2023-03-01T00:30:15;0.60;17.00
30865;DHT22;17574;49.418;11.038;2023-03-01T00:32:42;0.60;17.20
30865;DHT22;17574;49.418;11.038;2023-03-01T00:35:08;0.60;16.90
30865;DHT22;17574;49.418;11.038;2023-03-01T00:37:35;0.60;17.40
30865;DHT22;17574;49.418;11.038;2023-03-01T00:40:01;1.20;17.70
30865;DHT22;17574;49.418;11.038;2023-03-01T00:42:32;0.60;17.50
30865;DHT22;17574;49.418;11.038;2023-03-01T00:44:59;0.60;17.40
30865;DHT22;17574;49.418;11.038;2023-03-01T00:47:28;0.60;17.40
30865;DHT22;17574;49.418;11.038;2023-03-01T00:49:54;0.60;17.30
30865;DHT22;17574;49.418;11.038;2023-03-01T00:52:21;0.70;17.60
30865;DHT22;17574;49.418;11.038;2023-03-01T00:54:47;1.00;18.90
30865;DHT22;17574;49.418;11.038;2023-03-01T00:57:14;0.50;18.30
30865;DHT22;17574;49.418;11.038;2023-03-01T00:59:41;1.10;17.80
30865;DHT22;17574;49.418;11.038;2023-03-01T01:02:07;0.50;17.30
30865;DHT22;17574;49.418;11.038;2023-03-01T01:04:34;0.50;17.50
30865;DHT22;17574;49.418;11.038;2023-03-01T01:07:01;0.60;16.90
30865;DHT22;17574;49.418;11.038;2023-03-01T01:09:27;0.60;16.20
30865;DHT22;17574;49.418;11.038;2023-03-01T01:11:54;0.80;16.40
30865;DHT22;17574;49.418;11.038;2023-03-01T01:14:21;0.60;16.20
30865;DHT22;17574;49.418;11.038;2023-03-01T01:16:48;0.60;16.80
30865;DHT22;17574;49.418;11.038;2023-03-01T01:19:14;0.60;16.40
30865;DHT22;17574;49.418;11.038;2023-03-01T01:21:41;0.60;16.70
30865;DHT22;17574;49.418;11.038;2023-03-01T01:24:11;0.60;16.20
30865;DHT22;17574;49.418;11.038;2023-03-01T01:26:38;0.60;15.50
30865;DHT22;17574;49.418;11.038;2023-03-01T01:29:05;0.60;15.50
30865;DHT22;17574;49.418;11.038;2023-03-01T01:31:32;0.60;15.30
30865;DHT22;17574;49.418;11.038;2023-03-01T01:33:59;0.60;15.50
30865;DHT22;17574;49.418;11.038;2023-03-01T01:36:26;0.60;15.60
30865;DHT22;17574;49.418;11.038;2023-03-01T01:38:54;0.60;15.30
30865;DHT22;17574;49.418;11.038;2023-03-01T01:41:21;0.60;15.30
30865;DHT22;17574;49.418;11.038;2023-03-01T01:46:33;0.60;15.90
30865;DHT22;17574;49.418;11.038;2023-03-01T01:49:07;0.50;15.90
30865;DHT22;17574;49.418;11.038;2023-03-01T01:51:39;0.50;15.70
30865;DHT22;17574;49.418;11.038;2023-03-01T01:54:14;1.00;16.40
30865;DHT22;17574;49.418;11.038;2023-03-01T01:56:43;0.50;15.30
30865;DHT22;17574;49.418;11.038;2023-03-01T01:59:10;0.50;16.00
30865;DHT22;17574;49.418;11.038;2023-03-01T02:01:37;1.00;16.20
30865;DHT22;17574;49.418;11.038;2023-03-01T02:04:04;0.70;16.50
30865;DHT22;17574;49.418;11.038;2023-03-01T02:06:39;0.50;16.10
30865;DHT22;17574;49.418;11.038;2023-03-01T02:09:08;0.50;15.90
30865;DHT22;17574;49.418;11.038;2023-03-01T02:11:37;0.50;15.40
30865;DHT22;17574;49.418;11.038;2023-03-01T02:14:04;0.80;16.20
30865;DHT22;17574;49.418;11.038;2023-03-01T02:16:31;0.60;15.80
30865;DHT22;17574;49.418;11.038;2023-03-01T02:18:59;0.60;15.40
30865;DHT22;17574;49.418;11.038;2023-03-01T02:23:55;0.50;15.50
30865;DHT22;17574;49.418;11.038;2023-03-01T02:26:29;1.10;16.00
30865;DHT22;17574;49.418;11.038;2023-03-01T02:28:59;0.50;15.80
30865;DHT22;17574;49.418;11.038;2023-03-01T02:31:26;0.40;15.90
30865;DHT22;17574;49.418;11.038;2023-03-01T02:34:18;0.40;16.20
30865;DHT22;17574;49.418;11.038;2023-03-01T02:36:47;0.30;16.70
30865;DHT22;17574;49.418;11.038;2023-03-01T02:39:16;0.30;17.00
30865;DHT22;17574;49.418;11.038;2023-03-01T02:41:46;0.60;17.90
30865;DHT22;17574;49.418;11.038;2023-03-01T02:44:13;0.20;18.10
30865;DHT22;17574;49.418;11.038;2023-03-01T02:47:13;0.10;18.20
30865;DHT22;17574;49.418;11.038;2023-03-01T02:49:34;0.10;18.70
30865;DHT22;17574;49.418;11.038;2023-03-01T02:52:21;0.10;19.10
30865;DHT22;17574;49.418;11.038;2023-03-01T02:55:00;0.00;20.10
30865;DHT22;17574;49.418;11.038;2023-03-01T02:57:28;0.00;20.50
30865;DHT22;17574;49.418;11.038;2023-03-01T02:59:56;0.00;20.60
30865;DHT22;17574;49.418;11.038;2023-03-01T03:02:25;0.00;20.60
30865;DHT22;17574;49.418;11.038;2023-03-01T03:05:03;0.00;20.80
30865;DHT22;17574;49.418;11.038;2023-03-01T03:07:33;-0.10;21.20
30865;DHT22;17574;49.418;11.038;2023-03-01T03:10:01;0.00;21.70
30865;DHT22;17574;49.418;11.038;2023-03-01T03:12:28;-0.10;21.90
30865;DHT22;17574;49.418;11.038;2023-03-01T03:14:54;-0.20;21.80
30865;DHT22;17574;49.418;11.038;2023-03-01T03:17:21;-0.20;21.80
30865;DHT22;17574;49.418;11.038;2023-03-01T03:19:48;-0.30;21.80
30865;DHT22;17574;49.418;11.038;2023-03-01T03:22:14;-0.30;21.80
30865;DHT22;17574;49.418;11.038;2023-03-01T03:24:41;-0.30;21.80
30865;DHT22;17574;49.418;11.038;2023-03-01T03:27:08;-0.30;21.80
30865;DHT22;17574;49.418;11.038;2023-03-01T03:29:34;0.00;22.40
30865;DHT22;17574;49.418;11.038;2023-03-01T03:32:01;-0.30;21.80
30865;DHT22;17574;49.418;11.038;2023-03-01T03:34:28;-0.20;21.90
30865;DHT22;17574;49.418;11.038;2023-03-01T03:36:55;-0.30;21.80
30865;DHT22;17574;49.418;11.038;2023-03-01T03:39:23;-0.20;22.50
30865;DHT22;17574;49.418;11.038;2023-03-01T03:41:50;-0.20;21.80
30865;DHT22;17574;49.418;11.038;2023-03-01T03:44:16;-0.20;22.10
30865;DHT22;17574;49.418;11.038;2023-03-01T03:46:43;0.30;22.20
30865;DHT22;17574;49.418;11.038;2023-03-01T03:49:09;0.00;22.00
30865;DHT22;17574;49.418;11.038;2023-03-01T03:51:36;-0.10;21.90
30865;DHT22;17574;49.418;11.038;2023-03-01T03:54:03;0.00;22.00
30865;DHT22;17574;49.418;11.038;2023-03-01T03:56:30;0.70;22.40
30865;DHT22;17574;49.418;11.038;2023-03-01T03:58:57;0.00;21.90
30865;DHT22;17574;49.418;11.038;2023-03-01T04:01:23;-0.10;21.90
30865;DHT22;17574;49.418;11.038;2023-03-01T04:03:50;-0.10;22.40
30865;DHT22;17574;49.418;11.038;2023-03-01T04:06:20;0.00;22.00
30865;DHT22;17574;49.418;11.038;2023-03-01T04:08:47;0.00;22.00
30865;DHT22;17574;49.418;11.038;2023-03-01T04:11:17;0.60;22.40
30865;DHT22;17574;49.418;11.038;2023-03-01T04:13:54;-0.10;21.90
30865;DHT22;17574;49.418;11.038;2023-03-01T04:16:21;-0.10;21.90
30865;DHT22;17574;49.418;11.038;2023-03-01T04:18:47;-0.10;21.90
30865;DHT22;17574;49.418;11.038;2023-03-01T04:21:14;-0.10;21.80
30865;DHT22;17574;49.418;11.038;2023-03-01T04:23:41;-0.10;21.40
30865;DHT22;17574;49.418;11.038;2023-03-01T04:26:08;-0.10;20.90
30865;DHT22;17574;49.418;11.038;2023-03-01T04:28:35;-0.10;21.40
30865;DHT22;17574;49.418;11.038;2023-03-01T04:31:06;0.00;21.60
30865;DHT22;17574;49.418;11.038;2023-03-01T04:33:43;-0.10;20.40
30865;DHT22;17574;49.418;11.038;2023-03-01T04:36:10;-0.10;20.30
30865;DHT22;17574;49.418;11.038;2023-03-01T04:38:37;0.40;20.10
30865;DHT22;17574;49.418;11.038;2023-03-01T04:41:05;-0.10;19.40
30865;DHT22;17574;49.418;11.038;2023-03-01T04:43:32;0.10;19.50
30865;DHT22;17574;49.418;11.038;2023-03-01T04:46:04;0.20;19.30
30865;DHT22;17574;49.418;11.038;2023-03-01T04:48:32;-0.10;19.40
30865;DHT22;17574;49.418;11.038;2023-03-01T04:50:59;-0.10;19.60
30865;DHT22;17574;49.418;11.038;2023-03-01T04:53:26;-0.10;19.50
30865;DHT22;17574;49.418;11.038;2023-03-01T04:55:53;-0.20;20.10
30865;DHT22;17574;49.418;11.038;2023-03-01T04:58:21;-0.20;19.90
30865;DHT22;17574;49.418;11.038;2023-03-01T05:00:47;0.10;20.40
30865;DHT22;17574;49.418;11.038;2023-03-01T05:03:14;-0.20;21.00
30865;DHT22;17574;49.418;11.038;2023-03-01T05:05:45;0.40;22.20
30865;DHT22;17574;49.418;11.038;2023-03-01T05:08:12;-0.20;20.80
30865;DHT22;17574;49.418;11.038;2023-03-01T05:10:48;-0.20;20.60
30865;DHT22;17574;49.418;11.038;2023-03-01T05:13:15;-0.10;20.10
30865;DHT22;17574;49.418;11.038;2023-03-01T05:15:48;-0.20;19.60
30865;DHT22;17574;49.418;11.038;2023-03-01T05:18:15;-0.10;19.90
30865;DHT22;17574;49.418;11.038;2023-03-01T05:20:42;0.20;20.50
30865;DHT22;17574;49.418;11.038;2023-03-01T05:23:08;0.50;20.20
30865;DHT22;17574;49.418;11.038;2023-03-01T05:25:35;-0.10;19.50
30865;DHT22;17574;49.418;11.038;2023-03-01T05:28:10;-0.20;19.60
30865;DHT22;17574;49.418;11.038;2023-03-01T05:30:37;-0.10;18.90
30865;DHT22;17574;49.418;11.038;2023-03-01T05:33:05;-0.10;18.80
30865;DHT22;17574;49.418;11.038;2023-03-01T05:35:36;-0.20;18.80
30865;DHT22;17574;49.418;11.038;2023-03-01T05:38:03;-0.20;19.10
30865;DHT22;17574;49.418;11.038;2023-03-01T05:40:30;0.30;19.60
30865;DHT22;17574;49.418;11.038;2023-03-01T05:42:59;-0.20;19.00
30865;DHT22;17574;49.418;11.038;2023-03-01T05:45:26;0.40;19.60
30865;DHT22;17574;49.418;11.038;2023-03-01T05:47:53;-0.20;19.80
30865;DHT22;17574;49.418;11.038;2023-03-01T05:50:22;-0.20;20.50
30865;DHT22;17574;49.418;11.038;2023-03-01T05:52:54;-0.20;19.70
30865;DHT22;17574;49.418;11.038;2023-03-01T05:55:22;0.00;20.20
30865;DHT22;17574;49.418;11.038;2023-03-01T05:57:49;-0.20;20.00
30865;DHT22;17574;49.418;11.038;2023-03-01T06:00:17;-0.30;20.00
30865;DHT22;17574;49.418;11.038;2023-03-01T06:02:45;-0.20;20.10
30865;DHT22;17574;49.418;11.038;2023-03-01T06:05:12;-0.20;20.10
30865;DHT22;17574;49.418;11.038;2023-03-01T06:07:40;-0.20;19.90
30865;DHT22;17574;49.418;11.038;2023-03-01T06:10:07;-0.10;20.30
30865;DHT22;17574;49.418;11.038;2023-03-01T06:12:35;-0.20;20.10
30865;DHT22;17574;49.418;11.038;2023-03-01T06:15:02;-0.10;20.60
30865;DHT22;17574;49.418;11.038;2023-03-01T06:17:31;-0.10;19.50
30865;DHT22;17574;49.418;11.038;2023-03-01T06:19:58;-0.10;19.20
30865;DHT22;17574;49.418;11.038;2023-03-01T06:22:24;-0.10;19.00
30865;DHT22;17574;49.418;11.038;2023-03-01T06:24:51;0.30;18.90
30865;DHT22;17574;49.418;11.038;2023-03-01T06:27:18;0.00;18.90
30865;DHT22;17574;49.418;11.038;2023-03-01T06:29:44;0.10;17.80
30865;DHT22;17574;49.418;11.038;2023-03-01T06:32:11;0.20;17.40
30865;DHT22;17574;49.418;11.038;2023-03-01T06:34:38;0.40;17.80
30865;DHT22;17574;49.418;11.038;2023-03-01T06:37:05;0.40;17.80
30865;DHT22;17574;49.418;11.038;2023-03-01T06:39:32;0.30;16.60
30865;DHT22;17574;49.418;11.038;2023-03-01T06:41:59;0.30;16.20
30865;DHT22;17574;49.418;11.038;2023-03-01T06:44:26;0.30;16.00
30865;DHT22;17574;49.418;11.038;2023-03-01T06:46:53;0.40;16.10
30865;DHT22;17574;49.418;11.038;2023-03-01T06:49:20;0.80;16.10
30865;DHT22;17574;49.418;11.038;2023-03-01T06:51:50;0.80;15.90
30865;DHT22;17574;49.418;11.038;2023-03-01T06:54:16;0.60;14.40
30865;DHT22;17574;49.418;11.038;2023-03-01T06:56:46;0.90;13.60
30865;DHT22;17574;49.418;11.038;2023-03-01T06:59:13;1.20;11.60
30865;DHT22;17574;49.418;11.038;2023-03-01T07:01:40;1.70;9.50
30865;DHT22;17574;49.418;11.038;2023-03-01T07:04:06;1.90;7.60
30865;DHT22;17574;49.418;11.038;2023-03-01T07:06:33;2.00;6.40
30865;DHT22;17574;49.418;11.038;2023-03-01T07:08:59;2.40;3.40
30865;DHT22;17574;49.418;11.038;2023-03-01T07:11:26;3.10;2.70
30865;DHT22;17574;49.418;11.038;2023-03-01T07:13:53;2.90;1.00
30865;DHT22;17574;49.418;11.038;2023-03-01T07:16:19;3.40;1.00
30865;DHT22;17574;49.418;11.038;2023-03-01T07:18:46;3.60;1.00
30865;DHT22;17574;49.418;11.038;2023-03-01T07:21:13;4.00;1.00
30865;DHT22;17574;49.418;11.038;2023-03-01T07:23:40;4.40;1.00
30865;DHT22;17574;49.418;11.038;2023-03-01T07:26:07;4.80;1.00
30865;DHT22;17574;49.418;11.038;2023-03-01T07:28:34;5.60;1.00
30865;DHT22;17574;49.418;11.038;2023-03-01T07:31:02;5.10;1.00
30865;DHT22;17574;49.418;11.038;2023-03-01T07:33:29;5.30;1.00
30865;DHT22;17574;49.418;11.038;2023-03-01T07:35:57;5.20;1.00
30865;DHT22;17574;49.418;11.038;2023-03-01T07:38:24;5.30;1.00
30865;DHT22;17574;49.418;11.038;2023-03-01T07:40:51;5.40;1.00
30865;DHT22;17574;49.418;11.038;2023-03-01T07:43:18;5.60;1.00
30865;DHT22;17574;49.418;11.038;2023-03-01T07:45:45;6.00;1.00
30865;DHT22;17574;49.418;11.038;2023-03-01T07:48:11;6.20;1.00
30865;DHT22;17574;49.418;11.038;2023-03-01T07:50:38;7.10;1.00
30865;DHT22;17574;49.418;11.038;2023-03-01T07:53:05;7.70;1.00
30865;DHT22;17574;49.418;11.038;2023-03-01T07:55:31;8.30;1.00
30865;DHT22;17574;49.418;11.038;2023-03-01T07:57:58;8.80;1.00
30865;DHT22;17574;49.418;11.038;2023-03-01T08:00:25;9.10;1.00
30865;DHT22;17574;49.418;11.038;2023-03-01T08:02:51;9.80;1.00
30865;DHT22;17574;49.418;11.038;2023-03-01T08:05:18;10.50;1.00
30865;DHT22;17574;49.418;11.038;2023-03-01T08:07:44;10.80;1.00
30865;DHT22;17574;49.418;11.038;2023-03-01T08:10:11;11.40;1.00
30865;DHT22;17574;49.418;11.038;2023-03-01T08:12:38;11.50;1.00
30865;DHT22;17574;49.418;11.038;2023-03-01T08:15:04;12.00;1.00
30865;DHT22;17574;49.418;11.038;2023-03-01T08:17:32;12.00;1.00
30865;DHT22;17574;49.418;11.038;2023-03-01T08:19:58;12.30;1.00
30865;DHT22;17574;49.418;11.038;2023-03-01T08:22:25;12.20;1.00
30865;DHT22;17574;49.418;11.038;2023-03-01T08:24:51;12.40;1.00
30865;DHT22;17574;49.418;11.038;2023-03-01T08:27:18;12.50;1.00
30865;DHT22;17574;49.418;11.038;2023-03-01T08:29:45;12.60;1.00
30865;DHT22;17574;49.418;11.038;2023-03-01T08:32:11;12.70;1.00
30865;DHT22;17574;49.418;11.038;2023-03-01T08:34:38;12.90;1.00
30865;DHT22;17574;49.418;11.038;2023-03-01T08:37:07;13.10;1.00
30865;DHT22;17574;49.418;11.038;2023-03-01T08:39:33;13.00;1.00
30865;DHT22;17574;49.418;11.038;2023-03-01T08:42:00;13.30;1.00
30865;DHT22;17574;49.418;11.038;2023-03-01T08:44:27;12.90;1.00
30865;DHT22;17574;49.418;11.038;2023-03-01T08:46:53;13.10;1.00
30865;DHT22;17574;49.418;11.038;2023-03-01T08:49:22;13.40;1.00
30865;DHT22;17574;49.418;11.038;2023-03-01T08:51:48;13.60;1.00
30865;DHT22;17574;49.418;11.038;2023-03-01T08:54:19;13.90;1.00
30865;DHT22;17574;49.418;11.038;2023-03-01T08:56:46;14.10;1.00
30865;DHT22;17574;49.418;11.038;2023-03-01T08:59:13;14.10;1.00
30865;DHT22;17574;49.418;11.038;2023-03-01T09:01:40;14.50;1.00
30865;DHT22;17574;49.418;11.038;2023-03-01T09:04:10;14.60;1.00
30865;DHT22;17574;49.418;11.038;2023-03-01T09:06:37;14.70;1.00
30865;DHT22;17574;49.418;11.038;2023-03-01T09:09:05;15.60;1.00
30865;DHT22;17574;49.418;11.038;2023-03-01T09:11:31;15.20;1.00
30865;DHT22;17574;49.418;11.038;2023-03-01T09:13:59;16.40;1.00
30865;DHT22;17574;49.418;11.038;2023-03-01T09:16:26;17.10;1.00
30865;DHT22;17574;49.418;11.038;2023-03-01T09:18:54;17.60;1.00
30865;DHT22;17574;49.418;11.038;2023-03-01T09:21:21;17.70;1.00
30865;DHT22;17574;49.418;11.038;2023-03-01T09:24:05;18.60;1.00
30865;DHT22;17574;49.418;11.038;2023-03-01T09:26:31;19.00;1.00
30865;DHT22;17574;49.418;11.038;2023-03-01T09:28:59;19.60;1.00
30865;DHT22;17574;49.418;11.038;2023-03-01T09:31:25;19.60;1.00
30865;DHT22;17574;49.418;11.038;2023-03-01T09:33:53;19.30;1.00
30865;DHT22;17574;49.418;11.038;2023-03-01T09:36:21;19.70;1.00
30865;DHT22;17574;49.418;11.038;2023-03-01T09:38:48;19.40;1.00
30865;DHT22;17574;49.418;11.038;2023-03-01T09:41:38;20.60;1.00
30865;DHT22;17574;49.418;11.038;2023-03-01T09:44:03;20.80;1.00
30865;DHT22;17574;49.418;11.038;2023-03-01T09:46:36;21.20;1.00
30865;DHT22;17574;49.418;11.038;2023-03-01T09:49:05;21.50;1.00
30865;DHT22;17574;49.418;11.038;2023-03-01T09:51:36;20.80;1.00
30865;DHT22;17574;49.418;11.038;2023-03-01T09:54:04;21.40;1.00
30865;DHT22;17574;49.418;11.038;2023-03-01T09:56:41;21.00;1.00
30865;DHT22;17574;49.418;11.038;2023-03-01T10:09:37;21.40;1.00
30865;DHT22;17574;49.418;11.038;2023-03-01T10:12:06;22.10;1.00
30865;DHT22;17574;49.418;11.038;2023-03-01T10:14:35;21.70;1.00
30865;DHT22;17574;49.418;11.038;2023-03-01T10:19:41;22.70;1.00
30865;DHT22;17574;49.418;11.038;2023-03-01T10:22:21;22.20;1.00
30865;DHT22;17574;49.418;11.038;2023-03-01T10:24:49;22.30;1.00
30865;DHT22;17574;49.418;11.038;2023-03-01T10:27:23;22.40;1.00
30865;DHT22;17574;49.418;11.038;2023-03-01T10:32:37;22.60;1.00
30865;DHT22;17574;49.418;11.038;2023-03-01T10:35:15;23.00;1.00
30865;DHT22;17574;49.418;11.038;2023-03-01T10:40:29;22.80;1.00
30865;DHT22;17574;49.418;11.038;2023-03-01T10:42:59;22.40;1.00
30865;DHT22;17574;49.418;11.038;2023-03-01T10:48:30;22.30;1.00
30865;DHT22;17574;49.418;11.038;2023-03-01T10:53:29;22.60;1.00
30865;DHT22;17574;49.418;11.038;2023-03-01T10:56:20;23.00;1.00
30865;DHT22;17574;49.418;11.038;2023-03-01T10:59:02;22.20;1.00
30865;DHT22;17574;49.418;11.038;2023-03-01T11:01:29;22.50;1.00
30865;DHT22;17574;49.418;11.038;2023-03-01T11:06:32;22.70;1.00
30865;DHT22;17574;49.418;11.038;2023-03-01T11:11:45;22.80;1.00
30865;DHT22;17574;49.418;11.038;2023-03-01T11:14:19;22.40;1.00
30865;DHT22;17574;49.418;11.038;2023-03-01T11:17:03;22.10;1.00
30865;DHT22;17574;49.418;11.038;2023-03-01T11:19:30;22.00;1.00
30865;DHT22;17574;49.418;11.038;2023-03-01T11:22:31;21.80;1.00
30865;DHT22;17574;49.418;11.038;2023-03-01T11:24:51;21.40;1.00
30865;DHT22;17574;49.418;11.038;2023-03-01T11:27:36;20.80;1.00
30865;DHT22;17574;49.418;11.038;2023-03-01T11:30:28;21.20;1.00
30865;DHT22;17574;49.418;11.038;2023-03-01T11:35:38;21.10;1.00
30865;DHT22;17574;49.418;11.038;2023-03-01T11:38:15;21.10;1.00
30865;DHT22;17574;49.418;11.038;2023-03-01T11:40:47;21.30;1.00
30865;DHT22;17574;49.418;11.038;2023-03-01T11:43:29;20.80;1.00
30865;DHT22;17574;49.418;11.038;2023-03-01T11:46:03;20.90;1.00
30865;DHT22;17574;49.418;11.038;2023-03-01T11:48:43;20.30;1.00
30865;DHT22;17574;49.418;11.038;2023-03-01T12:06:59;19.40;1.00
30865;DHT22;17574;49.418;11.038;2023-03-01T12:12:03;19.10;1.00
30865;DHT22;17574;49.418;11.038;2023-03-01T12:19:31;18.90;1.00
30865;DHT22;17574;49.418;11.038;2023-03-01T12:22:08;18.90;1.00
30865;DHT22;17574;49.418;11.038;2023-03-01T12:27:26;19.90;1.00
30865;DHT22;17574;49.418;11.038;2023-03-01T12:30:01;20.70;1.00
30865;DHT22;17574;49.418;11.038;2023-03-01T12:32:38;21.10;1.00
30865;DHT22;17574;49.418;11.038;2023-03-01T12:40:20;21.80;1.00
30865;DHT22;17574;49.418;11.038;2023-03-01T12:53:24;21.70;1.00
30865;DHT22;17574;49.418;11.038;2023-03-01T12:55:53;22.00;1.00
30865;DHT22;17574;49.418;11.038;2023-03-01T12:58:57;21.50;1.00
30865;DHT22;17574;49.418;11.038;2023-03-01T13:01:30;21.60;1.00
30865;DHT22;17574;49.418;11.038;2023-03-01T13:04:16;21.30;1.00
30865;DHT22;17574;49.418;11.038;2023-03-01T13:06:50;21.50;1.00
30865;DHT22;17574;49.418;11.038;2023-03-01T13:11:57;21.10;1.00
30865;DHT22;17574;49.418;11.038;2023-03-01T13:16:51;20.50;1.00
30865;DHT22;17574;49.418;11.038;2023-03-01T13:19:18;21.00;1.00
30865;DHT22;17574;49.418;11.038;2023-03-01T13:21:46;20.60;1.00
30865;DHT22;17574;49.418;11.038;2023-03-01T13:24:29;20.30;1.00
30865;DHT22;17574;49.418;11.038;2023-03-01T13:29:46;20.20;1.00
30865;DHT22;17574;49.418;11.038;2023-03-01T13:32:25;19.70;1.00
30865;DHT22;17574;49.418;11.038;2023-03-01T13:37:43;18.80;1.00
30865;DHT22;17574;49.418;11.038;2023-03-01T13:42:45;18.60;1.00
30865;DHT22;17574;49.418;11.038;2023-03-01T13:45:40;18.40;1.00
30865;DHT22;17574;49.418;11.038;2023-03-01T13:48:11;17.70;1.00
30865;DHT22;17574;49.418;11.038;2023-03-01T13:50:49;16.90;1.00
30865;DHT22;17574;49.418;11.038;2023-03-01T13:53:18;16.50;1.00
30865;DHT22;17574;49.418;11.038;2023-03-01T13:55:46;16.80;1.00
30865;DHT22;17574;49.418;11.038;2023-03-01T13:58:24;17.00;1.00
30865;DHT22;17574;49.418;11.038;2023-03-01T14:00:58;16.80;1.00
30865;DHT22;17574;49.418;11.038;2023-03-01T14:03:25;16.50;1.00
30865;DHT22;17574;49.418;11.038;2023-03-01T14:08:39;16.50;1.00
30865;DHT22;17574;49.418;11.038;2023-03-01T14:11:20;16.40;1.00
30865;DHT22;17574;49.418;11.038;2023-03-01T14:14:10;16.20;1.00
30865;DHT22;17574;49.418;11.038;2023-03-01T14:19:16;15.70;1.00
30865;DHT22;17574;49.418;11.038;2023-03-01T14:22:13;15.60;1.00
30865;DHT22;17574;49.418;11.038;2023-03-01T14:24:52;15.20;1.00
30865;DHT22;17574;49.418;11.038;2023-03-01T14:27:20;14.60;1.00
30865;DHT22;17574;49.418;11.038;2023-03-01T14:29:55;14.40;1.00
30865;DHT22;17574;49.418;11.038;2023-03-01T14:32:27;14.30;1.00
30865;DHT22;17574;49.418;11.038;2023-03-01T14:34:54;14.40;1.00
30865;DHT22;17574;49.418;11.038;2023-03-01T14:37:28;14.30;1.00
30865;DHT22;17574;49.418;11.038;2023-03-01T14:39:55;13.90;1.00
30865;DHT22;17574;49.418;11.038;2023-03-01T14:42:23;13.60;1.00
30865;DHT22;17574;49.418;11.038;2023-03-01T14:44:51;13.60;1.00
30865;DHT22;17574;49.418;11.038;2023-03-01T14:47:22;13.60;1.00
30865;DHT22;17574;49.418;11.038;2023-03-01T14:49:50;13.70;1.00
30865;DHT22;17574;49.418;11.038;2023-03-01T14:52:21;13.70;1.00
30865;DHT22;17574;49.418;11.038;2023-03-01T14:54:49;13.70;1.00
30865;DHT22;17574;49.418;11.038;2023-03-01T14:57:18;13.40;1.00
30865;DHT22;17574;49.418;11.038;2023-03-01T14:59:45;13.20;1.00
30865;DHT22;17574;49.418;11.038;2023-03-01T15:02:18;13.10;1.00
30865;DHT22;17574;49.418;11.038;2023-03-01T15:04:46;13.00;1.00
30865;DHT22;17574;49.418;11.038;2023-03-01T15:07:13;12.90;1.00
30865;DHT22;17574;49.418;11.038;2023-03-01T15:09:40;12.70;1.00
30865;DHT22;17574;49.418;11.038;2023-03-01T15:14:53;12.70;1.00
30865;DHT22;17574;49.418;11.038;2023-03-01T15:17:31;12.60;1.00
30865;DHT22;17574;49.418;11.038;2023-03-01T15:19:58;12.50;1.00
30865;DHT22;17574;49.418;11.038;2023-03-01T15:22:25;12.30;1.00
30865;DHT22;17574;49.418;11.038;2023-03-01T15:24:52;12.20;1.00
30865;DHT22;17574;49.418;11.038;2023-03-01T15:27:20;12.20;1.00
30865;DHT22;17574;49.418;11.038;2023-03-01T15:32:26;12.20;1.00
30865;DHT22;17574;49.418;11.038;2023-03-01T15:34:52;12.10;1.00
30865;DHT22;17574;49.418;11.038;2023-03-01T15:43:05;11.60;1.00
30865;DHT22;17574;49.418;11.038;2023-03-01T15:45:32;11.50;1.00
30865;DHT22;17574;49.418;11.038;2023-03-01T15:48:14;11.30;1.00
30865;DHT22;17574;49.418;11.038;2023-03-01T15:50:43;11.30;1.00
30865;DHT22;17574;49.418;11.038;2023-03-01T15:53:12;11.20;1.00
30865;DHT22;17574;49.418;11.038;2023-03-01T15:55:40;11.10;1.00
30865;DHT22;17574;49.418;11.038;2023-03-01T15:58:14;11.10;1.00
30865;DHT22;17574;49.418;11.038;2023-03-01T16:00:42;10.90;1.00
30865;DHT22;17574;49.418;11.038;2023-03-01T16:03:25;10.70;1.00
30865;DHT22;17574;49.418;11.038;2023-03-01T16:05:52;10.60;1.00
30865;DHT22;17574;49.418;11.038;2023-03-01T16:08:20;10.40;1.00
30865;DHT22;17574;49.418;11.038;2023-03-01T16:10:46;10.40;1.00
30865;DHT22;17574;49.418;11.038;2023-03-01T16:13:16;10.20;1.00
30865;DHT22;17574;49.418;11.038;2023-03-01T16:15:43;10.10;1.00
30865;DHT22;17574;49.418;11.038;2023-03-01T16:18:10;10.00;1.00
30865;DHT22;17574;49.418;11.038;2023-03-01T16:20:38;9.90;1.00
30865;DHT22;17574;49.418;11.038;2023-03-01T16:23:05;9.80;1.00
30865;DHT22;17574;49.418;11.038;2023-03-01T16:25:33;9.70;1.00
30865;DHT22;17574;49.418;11.038;2023-03-01T16:27:59;9.60;1.00
30865;DHT22;17574;49.418;11.038;2023-03-01T16:30:30;9.40;1.00
30865;DHT22;17574;49.418;11.038;2023-03-01T16:32:57;9.40;1.00
30865;DHT22;17574;49.418;11.038;2023-03-01T16:35:24;9.30;1.00
30865;DHT22;17574;49.418;11.038;2023-03-01T16:37:51;9.10;1.00
30865;DHT22;17574;49.418;11.038;2023-03-01T16:40:21;9.10;1.00
30865;DHT22;17574;49.418;11.038;2023-03-01T16:42:48;8.90;1.00
30865;DHT22;17574;49.418;11.038;2023-03-01T16:45:16;8.80;1.00
30865;DHT22;17574;49.418;11.038;2023-03-01T16:47:50;8.80;1.00
30865;DHT22;17574;49.418;11.038;2023-03-01T16:50:21;8.70;1.00
30865;DHT22;17574;49.418;11.038;2023-03-01T16:52:48;8.70;1.00
30865;DHT22;17574;49.418;11.038;2023-03-01T16:55:14;8.60;1.00
30865;DHT22;17574;49.418;11.038;2023-03-01T16:57:41;8.50;1.00
30865;DHT22;17574;49.418;11.038;2023-03-01T17:00:08;8.40;1.00
30865;DHT22;17574;49.418;11.038;2023-03-01T17:02:40;8.30;1.00
30865;DHT22;17574;49.418;11.038;2023-03-01T17:05:08;8.30;1.00
30865;DHT22;17574;49.418;11.038;2023-03-01T17:07:35;8.20;1.00
30865;DHT22;17574;49.418;11.038;2023-03-01T17:10:07;8.20;1.00
30865;DHT22;17574;49.418;11.038;2023-03-01T17:12:34;8.00;1.00
30865;DHT22;17574;49.418;11.038;2023-03-01T17:15:01;7.90;1.00
30865;DHT22;17574;49.418;11.038;2023-03-01T17:17:28;7.90;1.00
30865;DHT22;17574;49.418;11.038;2023-03-01T17:19:54;7.90;1.00
30865;DHT22;17574;49.418;11.038;2023-03-01T17:22:21;7.80;1.00
30865;DHT22;17574;49.418;11.038;2023-03-01T17:24:48;7.30;1.00
30865;DHT22;17574;49.418;11.038;2023-03-01T17:27:14;7.70;1.00
30865;DHT22;17574;49.418;11.038;2023-03-01T17:29:41;7.70;1.00
30865;DHT22;17574;49.418;11.038;2023-03-01T17:32:08;7.60;1.00